Airfield :
LOGIN :

Register | Disclaimer

   EN    FR    IT 

 










Legend :    VFR   Marginal VFR   IFR   Intensive IFR   Very Intensive IFR
Visi :
Ceiling :
>= 8 km
>= 3000ft
5 to 8 km
1000 to 3000 ft
1500m to 5 km
500 to 1000 ft
800 to 1500m
200 to 500 ft
< 800m
< 200 ft
Symbols :   Thunderstorms  Fog  Heavy snow  Heavy precipitations  Wind > 20 kt
SIGMETs :     Misc.  Thunderstorms  Icing  Turbulence  Mountain Waves  Volcanic Ashes







- Airport Elevation : 84 ft
- Download approach charts


LFBC - Cazaux

CURRENT METAR :
  • 180730Z AUTO 25009KT 210V280 9999 BKN023 OVC028 12/07 Q1022 TEMPO 24015G25KT

EXPIRED METARs :
  • 180700Z AUTO 25013KT 9999 OVC028 12/07 Q1022 TEMPO 24015G25KT
  • 180630Z AUTO 25010KT 220V280 9999 SCT025 OVC031 12/07 Q1022 TEMPO 24015G25KT
  • 180600Z AUTO 26010KT 220V290 9999 SCT024 OVC031 11/08 Q1022
  • 180530Z AUTO 26009KT 220V290 9999 OVC030 12/06 Q1022
  • 180500Z AUTO 26011KT 230V300 9999 BKN029 OVC034 12/06 Q1023

TAF TAF LFBC
Valid from the 18 at 06:00 until the 19 at 03:00 UTC


180600Z 1806/1903 24010KT 9999 BKN025
BECMG 1809/1811 BKN015
BECMG 1814/1816 BKN008
TEMPO 1806/1818 24015G25KT
TEMPO 1818/1901 24015G25KT 4000 RADZ BKN005
BECMG 1901/1903 30010KT BKN030
No reported NOTAMs for that airfield.
1 SIGMET reported for the Bordeaux FIR (LFBB) :
 
Severe turbulence
LFBB SIGMET 2 VALID 180600/180900 LFPW
LFBB BORDEAUX FIR/UIR SEV TURB FCST NE OF LINE N4345 E00245 - N4715 E00130 SFC/FL080 STNR NC=



MET'MAP, your aeronautical weather chart ! - Copyright ORBIFLY December 2007 - Disclaimer

ORBIFLY MET'MAP TEAM :

Programming & Development : Alexandra Zaïnal
Concept & Development : Baudouin d'Aumeries
Co-Development & Prog : Marc-Olivier Méhu
Technical & hardware support : Manuel Goepfert

Contact : metmap@orbifly.com




SOURCES & CREDITS :

   NOAA